createdAt,value
2022-12-15T00:00:24.679Z,54.20
2022-12-15T00:03:31.404Z,45.20
2022-12-15T00:06:19.792Z,54.50
2022-12-15T00:09:09.821Z,60.10
2022-12-15T00:12:00.375Z,62.10
2022-12-15T00:14:47.524Z,67.80
2022-12-15T00:17:34.560Z,59.30
2022-12-15T00:20:22.138Z,54.30
2022-12-15T00:23:08.738Z,52.10
2022-12-15T00:25:55.382Z,47.80
2022-12-15T00:28:41.951Z,44.90
2022-12-15T00:31:28.614Z,44.20
2022-12-15T00:34:14.855Z,41.60
2022-12-15T00:37:01.626Z,49.70
2022-12-15T00:39:29.668Z,51.70
2022-12-15T00:41:57.807Z,49.60
2022-12-15T00:44:25.690Z,49.20
2022-12-15T00:46:56.646Z,47.30
2022-12-15T00:49:45.196Z,48.10
2022-12-15T00:52:33.419Z,50.30
2022-12-15T00:55:20.247Z,45.30
2022-12-15T00:58:06.925Z,40.40
2022-12-15T01:00:53.234Z,42.60
2022-12-15T01:03:42.198Z,47.20
2022-12-15T01:06:35.374Z,53.60
2022-12-15T01:09:25.058Z,48.30
2022-12-15T01:12:11.929Z,45.10
2022-12-15T01:14:58.283Z,42.80
2022-12-15T01:17:44.873Z,47.90
2022-12-15T01:20:18.064Z,38.40
2022-12-15T01:22:53.051Z,39.60
2022-12-15T01:25:24.315Z,42.50
2022-12-15T01:30:26.785Z,35.30
2022-12-15T01:32:54.777Z,42.50
2022-12-15T01:35:22.886Z,45.30
2022-12-15T01:37:50.861Z,44.80
2022-12-15T01:40:39.366Z,47.20
2022-12-15T01:43:14.165Z,46.60
2022-12-15T01:45:52.498Z,46.50
2022-12-15T01:48:29.803Z,46.00
2022-12-15T01:51:06.723Z,40.40
2022-12-15T01:53:57.338Z,42.90
2022-12-15T01:56:30.072Z,45.30
2022-12-15T01:59:05.118Z,39.30
2022-12-15T02:01:33.181Z,38.10
2022-12-15T02:04:01.115Z,40.20
2022-12-15T02:06:29.954Z,49.00
2022-12-15T02:09:00.831Z,47.50
2022-12-15T02:12:07.047Z,46.10
2022-12-15T02:14:46.920Z,43.30
2022-12-15T02:17:21.009Z,42.30
2022-12-15T02:20:23.311Z,41.40
2022-12-15T02:23:09.574Z,34.50
2022-12-15T02:25:58.757Z,34.30
2022-12-15T02:28:52.205Z,40.00
2022-12-15T02:31:51.445Z,45.80
2022-12-15T02:34:27.702Z,48.20
2022-12-15T02:37:08.948Z,44.40
2022-12-15T02:39:37.168Z,44.40
2022-12-15T02:42:05.119Z,50.30
2022-12-15T02:45:05.628Z,41.50
2022-12-15T02:48:12.209Z,42.80
2022-12-15T02:50:51.020Z,34.20
2022-12-15T02:53:28.790Z,36.10
2022-12-15T02:56:18.370Z,39.40
2022-12-15T02:59:01.863Z,43.70
2022-12-15T03:01:36.861Z,44.40
2022-12-15T03:04:09.263Z,43.80
2022-12-15T03:06:37.795Z,50.00
2022-12-15T03:09:05.989Z,45.70
2022-12-15T03:11:34.573Z,47.20
2022-12-15T03:14:02.702Z,46.10
2022-12-15T03:16:30.627Z,43.30
2022-12-15T03:18:58.530Z,45.70
2022-12-15T03:21:27.941Z,47.30
2022-12-15T03:23:56.110Z,50.30
2022-12-15T03:26:24.618Z,45.10
2022-12-15T03:28:52.993Z,47.30
2022-12-15T03:31:21.000Z,48.70
2022-12-15T03:33:48.890Z,51.40
2022-12-15T03:36:16.706Z,37.70
2022-12-15T03:38:44.689Z,45.00
2022-12-15T03:41:12.564Z,43.90
2022-12-15T03:43:40.575Z,46.70
2022-12-15T03:46:08.814Z,45.50
2022-12-15T03:48:37.109Z,41.30
2022-12-15T03:51:04.987Z,40.60
2022-12-15T03:53:33.046Z,38.20
2022-12-15T03:56:01.376Z,34.50
2022-12-15T03:58:30.220Z,30.20
2022-12-15T04:00:58.798Z,38.00
2022-12-15T04:03:26.990Z,38.00
2022-12-15T04:05:55.274Z,38.80
2022-12-15T04:08:26.724Z,38.50
2022-12-15T04:10:55.009Z,36.30
2022-12-15T04:13:22.912Z,36.50
2022-12-15T04:15:50.826Z,38.70
2022-12-15T04:18:18.800Z,30.20
2022-12-15T04:20:46.991Z,28.90
2022-12-15T04:23:18.315Z,38.00
2022-12-15T04:26:04.898Z,34.70
2022-12-15T04:28:51.742Z,36.20
2022-12-15T04:31:56.509Z,37.00
2022-12-15T04:34:43.151Z,33.60
2022-12-15T04:37:32.343Z,33.50
2022-12-15T04:40:18.773Z,28.70
2022-12-15T04:43:06.939Z,28.10
2022-12-15T04:45:53.456Z,29.10
2022-12-15T04:48:40.052Z,32.60
2022-12-15T04:51:26.132Z,34.00
2022-12-15T04:54:12.222Z,31.50
2022-12-15T04:56:58.390Z,28.80
2022-12-15T04:59:45.329Z,29.60
2022-12-15T05:02:31.984Z,28.70
2022-12-15T05:05:18.820Z,24.00
2022-12-15T05:08:05.568Z,21.20
2022-12-15T05:10:52.290Z,21.10
2022-12-15T05:13:38.649Z,23.10
2022-12-15T05:16:25.416Z,27.00
2022-12-15T05:19:11.785Z,23.40
2022-12-15T05:21:58.289Z,24.70
2022-12-15T05:24:45.600Z,27.90
2022-12-15T05:27:31.801Z,30.60
2022-12-15T05:30:18.276Z,25.00
2022-12-15T05:32:46.604Z,23.70
2022-12-15T05:35:18.104Z,24.40
2022-12-15T05:37:46.078Z,25.40
2022-12-15T05:40:13.987Z,25.40
2022-12-15T05:42:41.989Z,24.90
2022-12-15T05:45:10.476Z,25.30
2022-12-15T05:47:38.512Z,27.40
2022-12-15T05:50:07.065Z,26.20
2022-12-15T05:52:35.631Z,25.60
2022-12-15T05:55:03.939Z,28.10
2022-12-15T05:57:32.248Z,31.10
2022-12-15T06:00:00.345Z,26.20
2022-12-15T06:02:31.192Z,25.40
2022-12-15T06:04:59.953Z,28.50
2022-12-15T06:07:27.938Z,24.80
2022-12-15T06:09:55.798Z,22.50
2022-12-15T06:12:23.949Z,30.00
2022-12-15T06:14:52.278Z,31.50
2022-12-15T06:17:20.248Z,29.40
2022-12-15T06:19:48.232Z,31.80
2022-12-15T06:22:16.261Z,28.50
2022-12-15T06:24:44.290Z,22.80
2022-12-15T06:27:12.577Z,23.30
2022-12-15T06:29:40.500Z,27.30
2022-12-15T06:32:08.510Z,24.10
2022-12-15T06:34:37.279Z,24.70
2022-12-15T06:37:05.343Z,28.40
2022-12-15T06:39:33.244Z,27.30
2022-12-15T06:42:01.416Z,28.10
2022-12-15T06:44:29.260Z,26.20
2022-12-15T06:46:57.317Z,21.60
2022-12-15T06:49:25.301Z,23.10
2022-12-15T06:51:53.202Z,23.50
2022-12-15T06:54:21.154Z,25.40
2022-12-15T06:56:49.916Z,27.10
2022-12-15T06:59:18.116Z,39.30
2022-12-15T07:01:46.329Z,26.60
2022-12-15T07:04:15.251Z,28.90
2022-12-15T07:06:43.389Z,27.30
2022-12-15T07:09:16.357Z,21.00
2022-12-15T07:11:45.405Z,21.90
2022-12-15T07:14:13.419Z,21.80
2022-12-15T07:16:41.439Z,23.80
2022-12-15T07:19:13.646Z,27.50
2022-12-15T07:21:41.686Z,30.00
2022-12-15T07:24:12.014Z,24.40
2022-12-15T07:26:41.315Z,29.20
2022-12-15T07:29:11.806Z,28.00
2022-12-15T07:31:40.169Z,57.30
2022-12-15T07:34:08.124Z,42.40
2022-12-15T07:36:36.181Z,27.40
2022-12-15T07:39:05.407Z,23.30
2022-12-15T07:41:33.724Z,28.00
2022-12-15T07:44:02.545Z,33.20
2022-12-15T07:46:30.737Z,27.60
2022-12-15T07:48:58.945Z,29.60
2022-12-15T07:51:27.807Z,26.30
2022-12-15T07:53:56.229Z,28.80
2022-12-15T07:56:24.581Z,25.80
2022-12-15T07:58:52.848Z,28.80
2022-12-15T08:01:20.826Z,27.50
2022-12-15T08:03:49.308Z,20.20
2022-12-15T08:06:17.696Z,23.30
2022-12-15T08:08:50.802Z,17.80
2022-12-15T08:11:22.220Z,25.20
2022-12-15T08:14:10.669Z,25.70
2022-12-15T08:16:39.834Z,28.20
2022-12-15T08:19:13.795Z,27.50
2022-12-15T08:21:43.331Z,26.30
2022-12-15T08:24:12.154Z,27.60
2022-12-15T08:26:41.897Z,25.50
2022-12-15T08:29:49.579Z,22.90
2022-12-15T08:32:06.032Z,22.50
2022-12-15T08:34:34.256Z,27.80
2022-12-15T08:37:02.214Z,30.80
2022-12-15T08:39:30.420Z,28.30
2022-12-15T08:41:58.293Z,31.10
2022-12-15T08:44:26.236Z,30.10
2022-12-15T08:46:54.433Z,29.40
2022-12-15T08:49:22.766Z,28.30
2022-12-15T08:51:51.495Z,26.50
2022-12-15T08:54:20.570Z,21.70
2022-12-15T08:56:49.054Z,23.50
2022-12-15T08:59:17.271Z,23.50
2022-12-15T09:01:45.315Z,27.40
2022-12-15T09:04:13.777Z,25.20
2022-12-15T09:06:42.084Z,25.60
2022-12-15T09:09:12.394Z,24.90
2022-12-15T09:11:41.037Z,20.10
2022-12-15T09:14:09.081Z,24.70
2022-12-15T09:16:37.179Z,18.70
2022-12-15T09:19:05.626Z,19.60
2022-12-15T09:21:34.443Z,21.50
2022-12-15T09:24:03.984Z,22.60
2022-12-15T09:26:34.348Z,34.80
2022-12-15T09:29:02.435Z,26.60
2022-12-15T09:31:37.572Z,29.40
2022-12-15T09:34:05.652Z,27.10
2022-12-15T09:36:33.789Z,30.80
2022-12-15T09:39:02.805Z,29.40
2022-12-15T09:41:33.287Z,25.40
2022-12-15T09:44:14.987Z,24.10
2022-12-15T09:47:23.594Z,27.80
2022-12-15T09:49:56.156Z,23.40
2022-12-15T09:52:30.352Z,21.10
2022-12-15T09:54:59.429Z,19.50
2022-12-15T09:57:44.741Z,22.30
2022-12-15T10:00:25.732Z,30.20
2022-12-15T10:03:03.854Z,34.10
2022-12-15T10:06:06.898Z,26.10
2022-12-15T10:08:31.130Z,19.20
2022-12-15T10:11:02.160Z,24.50
2022-12-15T10:13:47.537Z,28.30
2022-12-15T10:16:28.081Z,31.00
2022-12-15T10:19:14.326Z,25.20
2022-12-15T10:21:42.634Z,28.20
2022-12-15T10:24:44.508Z,28.30
2022-12-15T10:27:17.200Z,25.60
2022-12-15T10:29:52.359Z,26.00
2022-12-15T10:32:43.074Z,29.00
2022-12-15T10:35:32.726Z,23.60
2022-12-15T10:38:05.054Z,21.10
2022-12-15T10:40:50.590Z,19.50
2022-12-15T10:43:31.741Z,23.80
2022-12-15T10:48:29.733Z,25.00
2022-12-15T10:51:37.346Z,30.60
2022-12-15T10:54:11.602Z,24.00
2022-12-15T10:57:27.817Z,22.60
2022-12-15T11:00:22.783Z,24.30
2022-12-15T11:02:50.844Z,28.80
2022-12-15T11:05:19.925Z,27.50
2022-12-15T11:07:50.585Z,27.30
2022-12-15T11:10:26.327Z,30.40
2022-12-15T11:13:14.422Z,31.30
2022-12-15T11:15:45.722Z,32.50
2022-12-15T11:18:53.343Z,28.40
2022-12-15T11:21:36.971Z,30.90
2022-12-15T11:24:16.674Z,25.80
2022-12-15T11:27:28.615Z,27.20
2022-12-15T11:30:16.323Z,25.20
2022-12-15T11:33:04.757Z,23.70
2022-12-15T11:35:51.547Z,25.60
2022-12-15T11:38:50.013Z,27.50
2022-12-15T11:41:27.987Z,25.20
2022-12-15T11:44:17.957Z,37.10
2022-12-15T11:47:11.162Z,37.50
2022-12-15T11:50:23.745Z,30.00
2022-12-15T11:53:11.221Z,29.90
2022-12-15T11:56:18.138Z,32.00
2022-12-15T11:59:23.794Z,39.80
2022-12-15T12:02:02.979Z,42.90
2022-12-15T12:04:31.344Z,38.60
2022-12-15T12:07:21.068Z,35.60
2022-12-15T12:10:21.929Z,35.60
2022-12-15T12:13:12.355Z,37.50
2022-12-15T12:15:43.558Z,38.70
2022-12-15T12:18:36.765Z,41.60
2022-12-15T12:21:14.507Z,39.50
2022-12-15T12:24:03.901Z,36.50
2022-12-15T12:26:45.241Z,44.80
2022-12-15T12:29:26.117Z,35.50
2022-12-15T12:31:56.446Z,40.40
2022-12-15T12:34:40.846Z,30.90
2022-12-15T12:37:27.992Z,37.80
2022-12-15T12:40:03.456Z,39.10
2022-12-15T12:42:40.607Z,43.40
2022-12-15T12:45:13.877Z,39.70
2022-12-15T12:47:50.087Z,39.00
2022-12-15T12:50:24.381Z,35.20
2022-12-15T12:53:03.440Z,33.10
2022-12-15T12:55:40.256Z,31.70
2022-12-15T12:58:34.296Z,29.40
2022-12-15T13:01:11.228Z,34.30
2022-12-15T13:03:40.471Z,32.30
2022-12-15T13:06:40.867Z,31.20
2022-12-15T13:09:17.488Z,37.60
2022-12-15T13:11:49.108Z,29.30
2022-12-15T13:14:30.691Z,28.00
2022-12-15T13:17:28.526Z,28.50
2022-12-15T13:19:56.467Z,29.20
2022-12-15T13:22:24.396Z,32.30
2022-12-15T13:24:52.395Z,35.20
2022-12-15T13:27:20.454Z,34.60
2022-12-15T13:30:09.935Z,34.70
2022-12-15T13:32:41.630Z,37.80
2022-12-15T13:35:13.198Z,36.70
2022-12-15T13:37:49.044Z,37.50
2022-12-15T13:40:24.215Z,28.90
2022-12-15T13:43:05.520Z,23.80
2022-12-15T13:45:50.707Z,23.80
2022-12-15T13:48:36.288Z,31.80
2022-12-15T13:51:25.739Z,27.30
2022-12-15T13:54:09.944Z,38.20
2022-12-15T13:56:46.561Z,30.50
2022-12-15T13:59:34.096Z,32.00
2022-12-15T14:02:02.343Z,30.50
2022-12-15T14:04:30.362Z,25.90
2022-12-15T14:07:02.014Z,26.70
2022-12-15T14:09:35.886Z,28.60
2022-12-15T14:12:08.076Z,28.50
2022-12-15T14:14:42.968Z,37.40
2022-12-15T14:17:15.377Z,38.20
2022-12-15T14:19:51.073Z,43.00
2022-12-15T14:22:28.261Z,42.00
2022-12-15T14:25:21.112Z,44.60
2022-12-15T14:27:51.023Z,32.60
2022-12-15T14:30:25.607Z,39.20
2022-12-15T14:33:01.673Z,54.30
2022-12-15T14:35:36.879Z,44.90
2022-12-15T14:38:09.162Z,33.10
2022-12-15T14:40:39.908Z,39.50
2022-12-15T14:45:40.070Z,34.30
2022-12-15T14:51:02.588Z,27.50
2022-12-15T14:53:36.615Z,32.20
2022-12-15T14:56:27.568Z,31.90
2022-12-15T14:59:06.318Z,33.00
2022-12-15T15:01:40.881Z,32.00
2022-12-15T15:04:29.380Z,35.80
2022-12-15T15:07:01.190Z,34.40
2022-12-15T15:09:38.353Z,34.40
2022-12-15T15:12:45.771Z,39.10
2022-12-15T15:15:24.704Z,34.20
2022-12-15T15:18:00.417Z,38.80
2022-12-15T15:20:36.548Z,49.20
2022-12-15T15:23:07.382Z,55.00
2022-12-15T15:28:12.006Z,58.70
2022-12-15T15:30:57.936Z,69.00
2022-12-15T15:33:26.893Z,51.10
2022-12-15T15:36:04.509Z,41.40
2022-12-15T15:38:35.042Z,35.20
2022-12-15T15:41:18.211Z,37.70
2022-12-15T15:43:47.190Z,38.00
2022-12-15T15:46:19.795Z,38.10
2022-12-15T15:48:55.314Z,35.70
2022-12-15T15:51:28.344Z,41.90
2022-12-15T15:54:00.247Z,38.50
2022-12-15T15:56:28.723Z,33.10
2022-12-15T15:58:57.881Z,27.10
2022-12-15T16:01:25.995Z,27.60
2022-12-15T16:03:54.165Z,34.50
2022-12-15T16:06:24.428Z,33.30
2022-12-15T16:08:53.975Z,37.20
2022-12-15T16:11:23.093Z,41.90
2022-12-15T16:13:51.631Z,46.50
2022-12-15T16:16:22.977Z,42.70
2022-12-15T16:18:51.279Z,37.90
2022-12-15T16:21:20.435Z,46.10
2022-12-15T16:23:49.445Z,38.20
2022-12-15T16:26:25.866Z,43.50
2022-12-15T16:28:54.271Z,43.60
2022-12-15T16:31:40.892Z,42.20
2022-12-15T16:34:09.756Z,37.00
2022-12-15T16:36:38.330Z,44.50
2022-12-15T16:39:24.287Z,42.60
2022-12-15T16:41:54.315Z,31.20
2022-12-15T16:44:23.330Z,38.50
2022-12-15T16:46:51.383Z,48.20
2022-12-15T16:49:19.566Z,44.50
2022-12-15T16:51:50.838Z,43.30
2022-12-15T16:54:30.603Z,45.70
2022-12-15T16:57:00.032Z,38.60
2022-12-15T16:59:36.087Z,36.10
2022-12-15T17:02:27.993Z,32.70
2022-12-15T17:04:56.379Z,37.30
2022-12-15T17:07:27.628Z,35.90
2022-12-15T17:09:56.433Z,35.00
2022-12-15T17:12:24.418Z,36.30
2022-12-15T17:14:52.891Z,35.50
2022-12-15T17:17:21.363Z,37.10
2022-12-15T17:20:27.459Z,31.60
2022-12-15T17:22:38.556Z,27.30
2022-12-15T17:25:16.237Z,38.60
2022-12-15T17:27:45.135Z,41.60
2022-12-15T17:30:15.659Z,45.60
2022-12-15T17:32:44.474Z,46.40
2022-12-15T17:35:12.693Z,44.60
2022-12-15T17:37:40.895Z,39.60
2022-12-15T17:40:20.793Z,37.80
2022-12-15T17:42:49.682Z,41.80
2022-12-15T17:45:24.808Z,42.90
2022-12-15T17:47:52.779Z,50.10
2022-12-15T17:50:21.210Z,51.20
2022-12-15T17:52:49.547Z,49.10
2022-12-15T17:55:19.951Z,54.60
2022-12-15T17:57:47.940Z,49.90
2022-12-15T18:00:17.579Z,52.40
2022-12-15T18:02:45.661Z,51.80
2022-12-15T18:05:14.345Z,48.00
2022-12-15T18:07:42.770Z,49.90
2022-12-15T18:10:41.032Z,52.30
2022-12-15T18:13:20.282Z,54.40
2022-12-15T18:15:49.616Z,53.00
2022-12-15T18:18:20.805Z,64.30
2022-12-15T18:20:51.350Z,59.90
2022-12-15T18:23:30.987Z,56.30
2022-12-15T18:26:02.873Z,52.60
2022-12-15T18:28:35.540Z,43.10
2022-12-15T18:31:19.707Z,49.50
2022-12-15T18:33:47.943Z,47.20
2022-12-15T18:36:16.307Z,49.10
2022-12-15T18:38:44.589Z,49.00
2022-12-15T18:41:17.859Z,53.20
2022-12-15T18:43:47.600Z,44.40
2022-12-15T18:46:17.147Z,40.80
2022-12-15T18:48:45.458Z,40.10
2022-12-15T18:51:18.012Z,44.50
2022-12-15T18:53:48.847Z,41.10
2022-12-15T18:56:19.363Z,47.90
2022-12-15T18:58:47.946Z,43.60
2022-12-15T19:01:16.511Z,46.70
2022-12-15T19:03:44.536Z,42.10
2022-12-15T19:06:34.947Z,49.60
2022-12-15T19:09:14.654Z,43.00
2022-12-15T19:12:04.799Z,47.20
2022-12-15T19:14:42.924Z,55.70
2022-12-15T19:17:32.232Z,54.50
2022-12-15T19:20:19.380Z,61.80
2022-12-15T19:22:48.795Z,66.00
2022-12-15T19:25:26.620Z,61.90
2022-12-15T19:27:59.724Z,58.80
2022-12-15T19:30:30.973Z,60.60
2022-12-15T19:32:59.260Z,59.00
2022-12-15T19:35:28.048Z,63.40
2022-12-15T19:37:58.711Z,51.30
2022-12-15T19:42:56.761Z,56.70
2022-12-15T19:45:28.030Z,52.70
2022-12-15T19:47:56.559Z,52.10
2022-12-15T19:50:29.349Z,47.10
2022-12-15T19:53:01.084Z,49.00
2022-12-15T19:55:32.945Z,43.10
2022-12-15T19:58:20.001Z,37.80
2022-12-15T20:00:51.666Z,42.50
2022-12-15T20:03:20.729Z,36.40
2022-12-15T20:05:51.945Z,46.60
2022-12-15T20:08:23.491Z,46.30
2022-12-15T20:10:53.938Z,46.50
2022-12-15T20:13:22.558Z,46.00
2022-12-15T20:15:50.839Z,55.00
2022-12-15T20:18:19.187Z,48.60
2022-12-15T20:20:48.910Z,48.90
2022-12-15T20:23:26.283Z,49.70
2022-12-15T20:25:56.253Z,64.40
2022-12-15T20:28:28.726Z,51.20
2022-12-15T20:30:58.199Z,55.70
2022-12-15T20:33:26.191Z,56.10
2022-12-15T20:35:54.302Z,55.10
2022-12-15T20:38:32.211Z,66.20
2022-12-15T20:41:01.991Z,52.80
2022-12-15T20:43:31.795Z,51.10
2022-12-15T20:46:05.832Z,88.80
2022-12-15T20:48:36.583Z,61.10
2022-12-15T20:51:09.502Z,46.80
2022-12-15T20:53:38.954Z,51.90
2022-12-15T20:56:07.643Z,58.60
2022-12-15T20:58:39.352Z,50.70
2022-12-15T21:01:29.164Z,48.20
2022-12-15T21:03:58.744Z,47.70
2022-12-15T21:06:28.493Z,39.00
2022-12-15T21:08:56.979Z,33.80
2022-12-15T21:11:32.527Z,30.80
2022-12-15T21:14:04.456Z,37.30
2022-12-15T21:16:32.838Z,42.90
2022-12-15T21:19:19.710Z,34.90
2022-12-15T21:21:54.939Z,42.80
2022-12-15T21:24:27.264Z,38.90
2022-12-15T21:26:55.555Z,39.00
2022-12-15T21:29:26.372Z,37.30
2022-12-15T21:31:54.871Z,40.20
2022-12-15T21:34:22.830Z,36.30
2022-12-15T21:36:55.061Z,41.80
2022-12-15T21:39:34.110Z,38.10
2022-12-15T21:42:07.130Z,40.00
2022-12-15T21:44:36.499Z,38.50
2022-12-15T21:47:24.970Z,40.60
2022-12-15T21:49:52.887Z,38.30
2022-12-15T21:52:25.976Z,36.40
2022-12-15T21:54:53.864Z,38.00
2022-12-15T21:57:23.108Z,42.50
2022-12-15T21:59:51.890Z,37.90
2022-12-15T22:02:26.999Z,43.50
2022-12-15T22:04:55.617Z,43.40
2022-12-15T22:07:23.546Z,46.00
2022-12-15T22:09:51.822Z,42.60
2022-12-15T22:12:22.887Z,44.30
2022-12-15T22:14:52.101Z,38.80
2022-12-15T22:17:22.163Z,42.90
2022-12-15T22:19:50.507Z,47.10
2022-12-15T22:22:18.333Z,47.40
2022-12-15T22:24:46.313Z,52.80
2022-12-15T22:27:23.376Z,48.80
2022-12-15T22:29:52.228Z,42.40
2022-12-15T22:32:20.360Z,34.20
2022-12-15T22:34:48.366Z,36.10
2022-12-15T22:37:16.548Z,41.60
2022-12-15T22:39:44.882Z,47.50
2022-12-15T22:42:17.314Z,50.80
2022-12-15T22:44:45.569Z,52.20
2022-12-15T22:47:13.794Z,49.50
2022-12-15T22:49:42.629Z,47.20
2022-12-15T22:52:19.452Z,43.30
2022-12-15T22:54:47.998Z,39.80
2022-12-15T22:57:22.824Z,40.10
2022-12-15T23:00:03.159Z,40.90
2022-12-15T23:05:02.373Z,46.30
2022-12-15T23:07:30.407Z,42.00
2022-12-15T23:10:16.932Z,41.90
2022-12-15T23:12:44.840Z,39.00
2022-12-15T23:15:31.640Z,32.60
2022-12-15T23:17:59.586Z,35.30
2022-12-15T23:20:27.498Z,35.30
2022-12-15T23:22:55.693Z,39.20
2022-12-15T23:25:23.616Z,41.30
2022-12-15T23:27:51.657Z,40.00
2022-12-15T23:30:20.455Z,36.40
2022-12-15T23:32:48.939Z,39.00
2022-12-15T23:35:16.839Z,33.60
2022-12-15T23:37:44.907Z,35.10
2022-12-15T23:40:20.025Z,32.00
2022-12-15T23:42:48.989Z,33.50
2022-12-15T23:45:17.064Z,39.40
2022-12-15T23:47:45.159Z,38.60
2022-12-15T23:50:13.098Z,41.90
2022-12-15T23:52:41.471Z,45.40
2022-12-15T23:55:10.250Z,49.90
2022-12-15T23:57:39.444Z,44.70
